Tiempo atmosférico en la estación meteorológica de Herrera Del Duque, Badajoz (447 m.)



Fecha
DESCASC
Temp. máxima en grados centígrados (hora)
DESCASC
Temp. mínima en grados centígrados (hora)
DESCASC
Temp. media en grados centígrados
DESCASC
Racha de viento máxima en m/sg (hora)
DESCASC
Velocidad máxima media en intervalos de 10 minutos(hora)
DESCASC
Precipitaciones diarias en mm
DESCASC
Precipitaciones de 00:00 a 06:00 en mm
DESCASC
Precipitaciones de 06:00 a 12:00 en mm
DESCASC
Precipitaciones de 12:00 a 18:00 en mm
DESCASC
Precipitaciones de 18:00 a 24:00 en mm
DESCASC
13-10-2019 28.4 (17:30) 14.5 (08:30) 21.4 9.17 (19:00) 4.17 (18:10) 0 0 0 0 0
12-10-2019 32.6 (15:50) 18.8 (08:50) 25.7 15 (17:30) 6.67 (17:40) 5 0 0 0.8 4.2
11-10-2019 31.6 (16:00) 14.5 (08:40) 23.1 6.11 (14:50) 3.61 (21:30) 0 0 0 0 0
10-10-2019 32.5 (16:40) 12.3 (00:00) 22.4 5.83 (16:20) 3.89 (18:40) 0 0 0 0 0
09-10-2019 31.7 (16:30) 13.9 (00:00) 22.8 7.5 (02:10) 4.17 (17:10) 0 0 0 0 0
08-10-2019 34.2 (15:40) 13.9 (00:00) 24.1 6.39 (17:00) 3.61 (16:00) 0 0 0 0 0
07-10-2019 33.4 (17:50) 12.6 (00:00) 23 4.72 (18:30) 2.78 (19:00) 0 0 0 0 0
06-10-2019 30.2 (17:00) 10.6 (00:00) 20.4 5.56 (17:20) 3.33 (18:20) 0 0 0 0 0
05-10-2019 29.4 (16:50) 12.2 (00:00) 20.8 6.94 (18:20) 3.89 (14:50) 0 0 0 0 0
04-10-2019 29.2 (17:00) 11.6 (00:00) 20.4 7.22 (17:00) 4.44 (15:30) 0 0 0 0 0
03-10-2019 28.8 (17:50) 9.8 (00:00) 19.3 6.11 (15:20) 4.17 (17:10) 0 0 0 0 0
02-10-2019 28.4 (17:30) 12.5 (00:00) 20.4 7.78 (19:10) 5.28 (19:00) 0 0 0 0 0
01-10-2019 28.1 (17:30) 15.6 (00:00) 21.9 10 (18:10) 6.11 (18:00) 0 0 0 0 0
30-09-2019 33.2 (17:10) 12 (00:00) 22.6 6.94 (16:00) 4.17 (15:50) 0 0 0 0 0
29-09-2019 33.2 (16:20) 12.4 (00:00) 22.8 7.22 (18:00) 3.89 (17:30) 0 0 0 0 0
28-09-2019 33.1 (17:30) 11.2 (00:00) 22.1 6.39 (16:30) 3.61 (16:30) 0 0 0 0 0
27-09-2019 31.6 (16:40) 12.9 (00:00) 22.3 6.39 (15:00) 3.61 (17:50) 0 0 0 0 0
26-09-2019 31 (17:30) 12.8 (00:00) 21.9 6.67 (15:50) 3.61 (15:20) 0 0 0 0 0
25-09-2019 28.1 (18:20) 14.5 (00:00) 21.3 6.11 (19:50) 3.61 (03:20) 0 0 0 0 0
24-09-2019 29 (16:40) 11.3 (00:00) 20.2 7.78 (17:20) 4.44 (19:40) 0 0 0 0 0
23-09-2019 27.1 (17:40) 11 (00:00) 19.1 5.56 (17:00) 3.06 (17:00) 0 0 0 0 0
22-09-2019 24.1 (18:00) 15.9 (00:00) 20 9.72 (00:50) 5.83 (16:20) 5 3 2 0 0
21-09-2019 24.9 (16:00) 17.1 (00:00) 21 9.72 (14:10) 5 (18:20) 0.2 0 0 0 0.2
20-09-2019 28.7 (16:30) 17.2 (00:00) 23 10 (19:50) 5.28 (19:20) 0 0 0 0 0
19-09-2019 32 (17:50) 16.5 (00:00) 24.3 6.39 (23:20) 3.89 (23:40) 0 0 0 0 0
18-09-2019 31.6 (17:40) 16.1 (00:00) 23.9 6.94 (18:10) 3.89 (18:10) 0 0 0 0 0
17-09-2019 32.8 (16:00) 18.5 (00:00) 25.6 11.39 (16:50) 6.94 (17:00) 0 0 0 0 0
16-09-2019 31.6 (17:30) 18.5 (00:00) 25.1 7.5 (14:50) 4.17 (14:20) 0 0 0 0 0

Gráficas

Temp. máximas Temp. mínimas Temp. medias Precipitaciones Rachas de viento máximas Velocidades máximas media en intervalos de 10 minutos

Datos horarios

Fecha y hora oficial Temperatura (ºC) Velocidad del viento (km/h) Dirección del viento Racha (km/h) Dirección de racha Precipitación (mm) Presión (hPa) Tendencia (hPa) Humedad (%)
2019-10-15 23:00:00 12.1 3 Sur 6 Sudoeste 0 970 1 62
2019-10-15 22:00:00 13.6 5 Sudoeste 8 Sudoeste 0 969.7 1.1 57
2019-10-15 21:00:00 14.4 4 Sur 9 Sudoeste 0 969.4 0.7 54
2019-10-15 20:00:00 15.5 6 Sudoeste 19 Sudoeste 0 969 0.3 46
2019-10-15 19:00:00 17.1 10 Oeste 21 Oeste 0 968.6 -0.3 40
2019-10-15 18:00:00 18.5 12 Oeste 19 Oeste 0 968.7 -0.9 37
2019-10-15 17:00:00 19 6 Oeste 19 Oeste 0 968.7 -1.4 35
2019-10-15 16:00:00 18.4 5 Noroeste 21 Noroeste 0 968.9 -1.7 40
2019-10-15 15:00:00 17.8 8 Noroeste 21 Noroeste 0 969.6 -1.1 41
2019-10-15 14:00:00 17.1 5 Oeste 18 Oeste 0 970.1 -0.4 45
2019-10-15 13:00:00 15.5 5 Oeste 17 Oeste 0 970.6 0.7 53
2019-10-15 12:00:00 14.2 7 Oeste 15 Oeste 0 970.7 1.3 56
2019-10-15 11:00:00 12.9 7 Sudoeste 14 Sudoeste 0 970.5 1.4 63
2019-10-15 10:00:00 11.1 2 Este 6 Sudeste 0 969.9 1.2 72
2019-10-15 09:00:00 7.2 2 Sur 6 Nordeste 0 969.4 1 83
2019-10-15 08:00:00 8.1 4 Sudoeste 9 Sudeste 0 969.1 0.9 78
2019-10-15 07:00:00 8.7 9 Sudoeste 17 Sudoeste 0 968.7 0.7 76
2019-10-15 06:00:00 7.8 3 Sudoeste 10 Sur 0 968.4 0.3 78
2019-10-15 05:00:00 9.1 3 Sudeste 15 Este 0 968.2 0.2 70
2019-10-15 04:00:00 9.7 4 Sudoeste 16 Oeste 0 968 0.5 70
2019-10-15 03:00:00 10.1 8 Oeste 16 Sudoeste 0 968.1 1.2 72
2019-10-15 02:00:00 11.1 5 Sudoeste 15 Oeste 0 968 1.2 75
2019-10-15 01:00:00 11.6 9 Oeste 23 Oeste 0 967.5 1.2 78
2019-10-15 00:00:00 12.4 13 Oeste 27 Oeste 0 966.9 1 83
2019-10-14 23:00:00 13 14 Oeste 25 Noroeste 0 966.8 1.7 82
2019-10-14 22:00:00 13.1 10 Oeste 25 Oeste 0 966.3 1.5 82
2019-10-14 21:00:00 12.7 10 Oeste 22 Oeste 0 965.9 1.2 83
2019-10-14 20:00:00 12.6 8 Oeste 18 Sudoeste 0.2 965.1 2 85
2019-10-14 19:00:00 12.8 10 Sudoeste 34 Oeste 1 964.8 2.5 82
2019-10-14 18:00:00 12.8 16 Oeste 51 Oeste 1.8 964.7 2.1 81
2019-10-14 17:00:00 18.4 25 Oeste 55 Oeste 0 963.1 -0.3 58
2019-10-14 16:00:00 21 20 Sudoeste 38 Sudoeste 0 962.3 -1.5 34
2019-10-14 15:00:00 19.4 20 Sudoeste 36 Oeste 0 962.6 -0.9 42
2019-10-14 14:00:00 19.4 18 Oeste 34 Sudoeste 0.2 963.4 0.4 47
2019-10-14 13:00:00 17.6 16 Oeste 31 Oeste 0 963.8 1.3 64
2019-10-14 12:00:00 16.6 15 Oeste 26 Sudoeste 0 963.5 2 72
2019-10-14 11:00:00 16.4 13 Sudoeste 35 Sudoeste 0 963 2.5 75
2019-10-14 10:00:00 15.7 15 Sudoeste 37 Sudoeste 2.4 962.5 1.4 81
2019-10-14 09:00:00 17.4 22 Sudoeste 45 Sudoeste 0.2 961.5 2.5 68
2019-10-14 08:00:00 17.3 9 Sur 33 Sudoeste 0 960.5 1.7 64
2019-10-14 07:00:00 18.4 17 Oeste 48 Sudoeste 0 961.1 2 63
2019-10-14 06:00:00 20.4 23 Sur 44 Sur 0 959 -0.7 55
2019-10-14 05:00:00 21.2 10 Sudoeste 23 Sur 0 958.8 -1.2 48
2019-10-14 04:00:00 21.4 8 Sur 22 Sur 0 959.1 -1.3 44
2019-10-14 03:00:00 22.3 8 Sur 19 Sudoeste 0 959.7 -1.1 40
2019-10-14 02:00:00 22.3 7 Sur 17 Sur 0 960 -1.1 38
2019-10-14 01:00:00 23.1 6 Sur 14 Sur 0 960.4 -0.8 34
2019-10-14 00:00:00 23.1 5 Sur 13 Sudoeste 0 960.8 -0.7 33
2019-10-13 23:00:00 23.1 5 Sur 17 Sur 0 961.1 -0.1 33
2019-10-13 22:00:00 24.3 6 Sur 19 Sur 0 961.2 0.1 29
2019-10-13 21:00:00 25.5 10 Sudoeste 23 Sur 0 961.5 0.3 26
2019-10-13 20:00:00 26.2 9 Sudoeste 27 Sudoeste 0 961.2 -0.7 24
2019-10-13 19:00:00 27.6 13 Sudoeste 33 Sudoeste 0 961.1 -1.4 23
2019-10-13 18:00:00 28.2 13 Sudoeste 28 Sur 0 961.2 -2.3 24
2019-10-13 17:00:00 27.9 12 Sudoeste 26 Sur 0 961.9 -2.6 28
2019-10-13 16:00:00 26.7 8 Sudoeste 22 Sudoeste 0 962.5 -2.7 31
2019-10-13 15:00:00 24.7 9 Sur 22 Sudoeste 0 963.5 -2.1 37
2019-10-13 14:00:00 23.2 8 Sur 18 Sur 0 964.5 -1.2 44
2019-10-13 13:00:00 22 11 Sudoeste 22 Sudoeste 0 965.2 0 49
2019-10-13 12:00:00 20.5 8 Sur 17 Sudoeste 0 965.6 1 57
2019-10-13 11:00:00 18.7 2 Sur 9 Sur 0 965.7 1.4 63
2019-10-13 10:00:00 16.2 2 Nordeste 8 Sur 0 965.2 1.2 75
2019-10-13 09:00:00 15.2 6 Sudoeste 8 Sudoeste 0 964.6 1.1 75
2019-10-13 08:00:00 15 5 Sur 8 Sur 0 964.3 0.9 78
2019-10-13 07:00:00 15.6 3 Sur 7 Sudeste 0 964 0.7 77
2019-10-13 06:00:00 16.6 4 Sudoeste 17 Sudoeste 0 963.5 0 74
2019-10-13 05:00:00 18.6 10 Sudoeste 21 Sudoeste 0 963.4 -0.2 68
2019-10-13 04:00:00 20.4 10 Sudoeste 24 Sudoeste 0 963.3 -0.5 61
2019-10-13 03:00:00 20.2 8 Sudoeste 13 Sur 0 963.5 -0.4 63
2019-10-13 02:00:00 21 9 Sudoeste 13 Sudoeste 0 963.6 0.2 59
2019-10-13 01:00:00 21.1 7 Sudoeste 12 Sur 0 963.8 1 58
2019-10-13 00:00:00 22.2 8 Sur 17 Sur 0 963.9 1.7 51
2019-10-12 23:00:00 23 10 Sudoeste 17 Sur 0 963.4 1 43
2019-10-12 22:00:00 21.3 6 Oeste 14 Sudeste 0 962.8 0.7 58
2019-10-12 21:00:00 20.7 4 Sudeste 27 Sudeste 1.6 962.2 -0.1 57
2019-10-12 20:00:00 20.1 12 Sudeste 39 Oeste 2.6 962.4 0.4 63
2019-10-12 19:00:00 24 8 Este 17 Este 0 962.1 -0.3 48
2019-10-12 18:00:00 23.8 13 Oeste 54 Sudoeste 0.8 962.3 -0.7 45
2019-10-12 17:00:00 30.7 7 Sudoeste 27 Sur 0 962 -2.2 15
2019-10-12 16:00:00 31.5 14 Sudoeste 24 Sudoeste 0 962.4 -2.4 15
2019-10-12 15:00:00 30.5 9 Sur 20 Sur 0 963 -2.3 18
2019-10-12 14:00:00 29.8 6 Sur 17 Sudoeste 0 964.2 -0.8 20
2019-10-12 13:00:00 28 8 Este 13 Este 0 964.8 0.1 25
2019-10-12 12:00:00 24.5 3 Oeste 12 Oeste 0 965.3 1.2 33
2019-10-12 11:00:00 21.7 5 Oeste 12 Oeste 0 965 1.3 43
2019-10-12 10:00:00 19.8 7 Noroeste -- -- 0 964.7 0.4 50
2019-10-12 09:00:00 18.9 4 Sur 12 Nordeste 0 964.1 -0.3 49
2019-10-12 08:00:00 19.2 4 Sur 11 Sudoeste 0 963.7 -0.8 47
2019-10-12 07:00:00 19.6 2 Nordeste 24 Noroeste 0 964.3 -0.1 50
2019-10-12 06:00:00 20.3 3 Nordeste 8 Norte 0 964.4 -0.5 45
2019-10-12 05:00:00 21 3 Noroeste 8 Oeste 0 964.5 -0.7 41
2019-10-12 04:00:00 23.4 8 Este 14 Sudeste 0 964.4 -1.2 32
2019-10-12 03:00:00 22 3 Sudeste 12 Nordeste 0 964.9 -0.9 37
2019-10-12 02:00:00 23.1 8 Este 15 Nordeste 0 965.2 -0.7 33
2019-10-12 01:00:00 23.7 2 Sudeste 14 Este 0 965.6 0.4 33
2019-10-12 00:00:00 24.3 4 Este 10 Este 0 965.8 1.1 32
2019-10-11 23:00:00 25 3 Oeste 12 Sudoeste 0 965.9 1.4 28
2019-10-11 22:00:00 26.2 6 Sudoeste 22 Sudoeste 0 965.2 0.6 27
2019-10-11 21:00:00 26.5 8 Sudoeste 15 Sudoeste 0 964.7 0 25
2019-10-11 20:00:00 27.5 10 Sudoeste 18 Sudoeste 0 964.5 -0.3 22
2019-10-11 19:00:00 28.3 5 Sudoeste 21 Sudoeste 0 964.6 -0.6 23
2019-10-11 18:00:00 29.3 10 Sudoeste 21 Sudoeste 0 964.7 -1.1 24
2019-10-11 17:00:00 29.7 7 Sudoeste 20 Sur 0 964.8 -1.9 24
2019-10-11 16:00:00 31.5 9 Sur 19 Sudoeste 0 965.2 -2.6 18
2019-10-11 15:00:00 30.3 11 Sudoeste 22 Sudoeste 0 965.8 -2.3 23
2019-10-11 14:00:00 29.2 6 Nordeste 16 Norte 0 966.7 -1.8 28
2019-10-11 13:00:00 27.4 4 Norte 9 Nordeste 0 967.8 -0.3 32
2019-10-11 12:00:00 25.5 2 Nordeste 7 Norte 0 968.1 0.5 35
2019-10-11 11:00:00 22.2 4 Norte 7 Nordeste 0 968.5 1.3 44
2019-10-11 10:00:00 19.2 0 Calma 3 Nordeste 0 968.1 1.3 53
2019-10-11 09:00:00 15.3 0 Calma 5 Sudoeste 0 967.6 1.1 67
2019-10-11 08:00:00 14.9 3 Sur 5 Norte 0 967.2 0.8 66
2019-10-11 07:00:00 16.8 6 Sur 8 Sur 0 966.8 0.4 60
2019-10-11 06:00:00 17.1 6 Sudoeste 10 Sudoeste 0 966.5 -0.1 60
2019-10-11 05:00:00 17.3 4 Noroeste 8 Noroeste 0 966.4 0 54
2019-10-11 04:00:00 18.5 2 Sudeste 7 Este 0 966.4 -0.1 53
2019-10-11 03:00:00 19.1 2 Noroeste 8 Sur 0 966.6 0.3 50
2019-10-11 02:00:00 18.7 3 Sudoeste 5 Sudoeste 0 966.4 0.3 51
2019-10-11 01:00:00 20.2 4 Sudoeste 8 Sudeste 0 966.5 0.9 48
2019-10-11 00:00:00 20.8 2 Sudeste 6 Sur 0 966.3 1.1 42
2019-10-10 23:00:00 22.2 4 Sudoeste 6 Sur 0 966.1 1.1 38
2019-10-10 22:00:00 23.3 2 Sur 9 Sudeste 0 965.6 0.7 35
2019-10-10 21:00:00 24.9 4 Sur 8 Sudeste 0 965.2 0.5 32
2019-10-10 20:00:00 27.5 4 Sur 13 Noroeste 0 965 0.1 28
2019-10-10 19:00:00 30.4 11 Noroeste 21 Noroeste 0 964.9 -0.2 22
2019-10-10 18:00:00 31.9 9 Noroeste 18 Sudoeste 0 964.7 -1 21
2019-10-10 17:00:00 32.2 9 Sur 21 Sudoeste 0 964.9 -1.6 21
2019-10-10 16:00:00 32.2 6 Norte 21 Noroeste 0 965.1 -2 21
2019-10-10 15:00:00 30.9 8 Noroeste 15 Noroeste 0 965.7 -1.7 22
2019-10-10 14:00:00 29.5 8 Oeste 13 Oeste 0 966.5 -0.9 24
2019-10-10 13:00:00 27 3 Sudoeste 8 Oeste 0 967.1 0.1 28
2019-10-10 12:00:00 23.3 3 Noroeste 8 Norte 0 967.4 1.3 32
2019-10-10 11:00:00 20.5 3 Oeste 6 Nordeste 0 967.4 1.6 39
2019-10-10 10:00:00 17.4 0 Calma 5 Sudoeste 0 967 1.5 45
2019-10-10 09:00:00 13.8 0 Calma 9 Oeste 0 966.1 0.7 57
2019-10-10 08:00:00 13.1 6 Oeste 12 Sudoeste 0 965.8 0.8 59
2019-10-10 07:00:00 14.4 3 Sudeste 7 Sudeste 0 965.5 0.4 55
2019-10-10 06:00:00 14.1 0 Calma 5 Sudeste 0 965.4 0.2 54
2019-10-10 05:00:00 15.6 0 Calma 7 Noroeste 0 965 -0.3 51
2019-10-10 04:00:00 16.1 5 Sudoeste 9 Sudoeste 0 965.1 -0.1 48
2019-10-10 03:00:00 17.2 3 Norte 9 Norte 0 965.2 0.1 37
2019-10-10 02:00:00 17.6 0 Calma 6 Sur 0 965.3 0.4 39
2019-10-10 01:00:00 17.8 2 Sudeste 4 Sur 0 965.2 0.6 38
2019-10-10 00:00:00 20.3 3 Sur 6 Sur 0 965.1 0.9 30
2019-10-09 23:00:00 21.6 4 Sudoeste 8 Sudoeste 0 964.9 1.2 29
2019-10-09 22:00:00 23.6 2 Sur 9 Sudoeste 0 964.6 1 32
2019-10-09 21:00:00 25.4 5 Sudoeste 11 Oeste 0 964.2 0.8 33
2019-10-09 20:00:00 27.3 8 Sudoeste 19 Oeste 0 963.7 0.1 31
2019-10-09 19:00:00 29.6 10 Oeste 22 Oeste 0 963.6 -0.4 28
2019-10-09 18:00:00 31 12 Sudoeste 25 Oeste 0 963.4 -0.9 25
2019-10-09 17:00:00 31.3 13 Sudoeste 23 Oeste 0 963.6 -1.4 24
2019-10-09 16:00:00 31.4 12 Sudoeste 22 Sudoeste 0 964 -1.3 24
2019-10-09 15:00:00 30.5 9 Oeste 18 Oeste 0 964.3 -1 28
2019-10-09 14:00:00 29.5 9 Oeste 18 Oeste 0 965 -1 29
2019-10-09 13:00:00 28.3 10 Noroeste 16 Sudoeste 0 965.3 -0.3 30
2019-10-09 12:00:00 25.7 8 Oeste 17 Sur 0 965.3 0.7 38
2019-10-09 11:00:00 21.7 6 Nordeste 13 Norte 0 966 1.7 40
2019-10-09 10:00:00 18.4 5 Norte 12 Noroeste 0 965.6 1.2 45
2019-10-09 09:00:00 15.5 4 Noroeste 12 Sudoeste 0 964.6 0.5 53
2019-10-09 08:00:00 14.2 2 Este 6 Sudeste 0 964.3 0.3 57
2019-10-09 07:00:00 15.7 6 Sudeste 9 Sudeste 0 964.4 0.4 53
2019-10-09 06:00:00 16.8 7 Sur 12 Oeste 0 964.1 -0.5 49
2019-10-09 05:00:00 17.3 4 Sudoeste 8 Noroeste 0 964 -0.4 47
2019-10-09 04:00:00 19.6 4 Sudeste 9 Este 0 964 -0.6 40
2019-10-09 03:00:00 18.4 4 Sudeste 27 Oeste 0 964.6 -0.1 43
2019-10-09 02:00:00 19.3 0 Calma 4 Sudeste 0 964.4 -0.2 40
2019-10-09 01:00:00 20.6 4 Sur 8 Sudeste 0 964.6 0.3 37
2019-10-09 00:00:00 21.3 0 Calma 9 Sur 0 964.7 0.5 35
2019-10-08 23:00:00 22.4 7 Sur 10 Sur 0 964.6 0.6 33
2019-10-08 22:00:00 24 6 Sur 7 Sur 0 964.3 0.6 29
2019-10-08 21:00:00 25.7 4 Sudoeste 7 Sudoeste 0 964.2 0.3 26
2019-10-08 20:00:00 29.1 5 Sudoeste 15 Oeste 0 964 -0.1 20
2019-10-08 19:00:00 32.5 8 Oeste 17 Oeste 0 963.7 -1.3 15
2019-10-08 18:00:00 33.5 10 Sudoeste 21 Oeste 0 963.9 -1.2 14
2019-10-08 17:00:00 33.8 10 Oeste 23 Oeste 0 964.1 -1.9 14
2019-10-08 16:00:00 33.6 13 Oeste 22 Oeste 0 965 -1.8 14
2019-10-08 15:00:00 33.4 7 Oeste 19 Oeste 0 965.1 -2.3 14
2019-10-08 14:00:00 32 4 Oeste 10 Noroeste 0 966 -1.5 18
2019-10-08 13:00:00 29.1 4 Sudoeste 8 Sudoeste 0 966.8 -0.6 22
2019-10-08 12:00:00 26.1 3 Oeste 8 Oeste 0 967.4 0.5 26
2019-10-08 11:00:00 23 2 Norte 6 Norte 0 967.5 0.9 32
2019-10-08 10:00:00 19.1 2 Noroeste 4 Noroeste 0 967.4 1.1 44
2019-10-08 09:00:00 15.7 0 Calma 6 Sur 0 966.9 0.8 53
2019-10-08 08:00:00 15 4 Sudeste 7 Sudeste 0 966.6 0.5 53
2019-10-08 07:00:00 15.3 0 Calma 7 Oeste 0 966.3 0.1 53
2019-10-08 06:00:00 14.9 0 Calma 4 Nordeste 0 966.1 -0.3 50
2019-10-08 05:00:00 15.6 2 Sudeste 6 Sudoeste 0 966.1 -0.3 50
2019-10-08 04:00:00 17 4 Sudoeste 6 Sudoeste 0 966.2 -0.4 46
2019-10-08 03:00:00 17.2 0 Calma 5 Sudeste 0 966.4 -0.2 45
2019-10-08 02:00:00 18.7 6 Sudoeste 7 Sudoeste 0 966.4 -0.2 41
2019-10-08 01:00:00 19.3 2 Sudeste 7 Sur 0 966.6 0.6 38
2019-10-08 00:00:00 20.7 5 Sur 8 Sudoeste 0 966.6 1 35
2019-10-07 23:00:00 22.2 4 Sur 8 Sudeste 0 966.6 1.1 31
2019-10-07 22:00:00 22.8 2 Sur 6 Sur 0 966 0.6 30
2019-10-07 21:00:00 24.6 3 Sur 8 Sur 0 965.6 0.2 26
2019-10-07 20:00:00 28.1 4 Oeste 15 Noroeste 0 965.5 -0.1 20
2019-10-07 19:00:00 31.5 10 Oeste 17 Sudoeste 0 965.4 -0.6 15
2019-10-07 18:00:00 33.1 8 Noroeste 14 Noroeste 0 965.4 -1 13
2019-10-07 17:00:00 33.1 6 Oeste 16 Oeste 0 965.6 -1.5 13
2019-10-07 16:00:00 32.2 6 Norte 13 Noroeste 0 966 -1.7 15
2019-10-07 15:00:00 31.8 5 Nordeste 14 Nordeste 0 966.4 -1.7 14
2019-10-07 14:00:00 30.2 6 Norte 12 Norte 0 967.1 -1.2 16
2019-10-07 13:00:00 28 3 Norte 9 Norte 0 967.7 -0.1 21
2019-10-07 12:00:00 25.1 4 Sudoeste 7 Sudoeste 0 968.1 0.8 25
2019-10-07 11:00:00 21.7 3 Oeste 6 Noroeste 0 968.3 1.3 33
2019-10-07 10:00:00 18.3 3 Nordeste 8 Sudoeste 0 967.8 1.1 43
2019-10-07 09:00:00 13.9 3 Sur 7 Nordeste 0 967.3 0.9 56
2019-10-07 08:00:00 13.3 2 Sudeste 5 Sudeste 0 967 0.9 56
2019-10-07 07:00:00 13.7 3 Nordeste 8 Sudoeste 0 966.7 0.2 52
2019-10-07 06:00:00 14.6 3 Sur 6 Sudoeste 0 966.4 -0.7 51
2019-10-07 05:00:00 15 2 Sur 7 Oeste 0 966.1 -0.9 51
2019-10-07 04:00:00 15.7 4 Sudoeste 10 Oeste 0 966.5 -1 48
2019-10-07 03:00:00 16.9 5 Sudoeste 10 Sudoeste 0 967.1 -0.5 44
2019-10-07 02:00:00 16.8 3 Sudoeste 6 Sudeste 0 967 -0.6 46
2019-10-07 01:00:00 16.8 3 Este 6 Sudeste 0 967.5 0.6 41
2019-10-07 00:00:00 19.2 2 Sur 10 Sudeste 0 967.6 1 36
2019-10-06 23:00:00 20.7 3 Sur 7 Sudoeste 0 967.6 1.2 32
2019-10-06 22:00:00 23.7 6 Sudoeste 10 Sudoeste 0 966.9 0.6 25
2019-10-06 21:00:00 24.9 7 Sudoeste 12 Sudoeste 0 966.6 0.2 23
2019-10-06 20:00:00 26.5 6 Sudoeste 15 Sudoeste 0 966.4 -0.2 19
2019-10-06 19:00:00 29.2 9 Oeste 18 Oeste 0 966.3 -0.6 17
2019-10-06 18:00:00 29.7 11 Noroeste 20 Oeste 0 966.4 -0.8 18
2019-10-06 17:00:00 30.1 9 Oeste 19 Oeste 0 966.6 -1.6 17
2019-10-06 16:00:00 29.6 8 Sudoeste 17 Oeste 0 966.9 -1.3 18
2019-10-06 15:00:00 29 7 Oeste 18 Oeste 0 967.2 -1.3 20
2019-10-06 14:00:00 27.1 8 Noroeste 15 Oeste 0 968.2 -0.5 26
2019-10-06 13:00:00 25.7 6 Noroeste 12 Noroeste 0 968.2 -0.2 29
2019-10-06 12:00:00 22.9 5 Nordeste 8 Sudeste 0 968.5 0.9 34
2019-10-06 11:00:00 19.4 4 Este 7 Nordeste 0 968.7 1.8 41
2019-10-06 10:00:00 15.6 2 Nordeste 4 Nordeste 0 968.4 1.5 53
2019-10-06 09:00:00 11.5 2 Oeste 5 Sur 0 967.6 1.2 64
2019-10-06 08:00:00 10.6 2 Norte 6 Sudeste 0 966.9 0.8 67
2019-10-06 07:00:00 11.4 0 Calma 6 Sudeste 0 966.9 0.9 63
2019-10-06 06:00:00 12.5 4 Sudoeste 10 Noroeste 0 966.4 -0.2 64
2019-10-06 05:00:00 13.1 6 Noroeste 13 Oeste 0 966.1 -0.5 57
2019-10-06 04:00:00 13.6 2 Este 5 Sudeste 0 966 -0.2 55
2019-10-06 03:00:00 15.2 0 Calma 6 Sur 0 966.6 0.4 52
2019-10-06 02:00:00 15.4 3 Oeste 6 Sudeste 0 966.6 0.6 45
2019-10-06 01:00:00 16.7 3 Sur 6 Sur 0 966.2 0.5 45
2019-10-06 00:00:00 19.3 5 Sur 9 Sur 0 966.2 1.1 37
2019-10-05 23:00:00 20.1 5 Sudoeste 8 Sudoeste 0 966 1.1 30
2019-10-05 22:00:00 21.3 3 Sudeste 13 Oeste 0 965.7 1.2 23
2019-10-05 21:00:00 23.5 10 Oeste 19 Oeste 0 965.1 0.9 16
2019-10-05 20:00:00 24.8 10 Oeste 19 Oeste 0 964.9 0.6 29
2019-10-05 19:00:00 27 13 Oeste 25 Oeste 0 964.5 0 30
2019-10-05 18:00:00 28.6 13 Oeste 21 Oeste 0 964.2 -0.7 28
2019-10-05 17:00:00 29.2 9 Sudoeste 22 Sudoeste 0 964.3 -1.3 26
2019-10-05 16:00:00 28.4 12 Oeste 22 Oeste 0 964.5 -1.4 28
2019-10-05 15:00:00 27.8 9 Oeste 23 Oeste 0 964.9 -1.2 29
2019-10-05 14:00:00 27 5 Noroeste 15 Noroeste 0 965.6 -0.6 34
2019-10-05 13:00:00 25 6 Oeste 11 Oeste 0 965.9 0.1 39
2019-10-05 12:00:00 22.5 3 Oeste 7 Noroeste 0 966.1 0.8 46
2019-10-05 11:00:00 20 3 Este 6 Nordeste 0 966.2 1.5 51
2019-10-05 10:00:00 16.6 3 Nordeste 4 Nordeste 0 965.8 1.4 60
2019-10-05 09:00:00 12.8 0 Calma 5 Sudeste 0 965.3 1 75
2019-10-05 08:00:00 13.1 2 Sur 6 Sudoeste 0 964.7 0.3 73
2019-10-05 07:00:00 12.7 4 Oeste 5 Oeste 0 964.4 -0.2 73
2019-10-05 06:00:00 13.9 2 Oeste 5 Oeste 0 964.3 -0.5 67
2019-10-05 05:00:00 14.1 3 Nordeste 9 Sur 0 964.4 -0.3 65
2019-10-05 04:00:00 14.4 0 Calma 6 Sur 0 964.6 -0.2 65
2019-10-05 03:00:00 14.8 3 Oeste 5 Noroeste 0 964.8 0 64
2019-10-05 02:00:00 15.8 3 Sur 8 Sur 0 964.7 -0.1 60
2019-10-05 01:00:00 18 5 Sur 9 Sur 0 964.8 0.2 56
2019-10-05 00:00:00 18.7 3 Este 10 Sudoeste 0 964.8 0.2 49
2019-10-04 23:00:00 19.4 5 Sur 10 Sudoeste 0 964.8 0.6 50
2019-10-04 22:00:00 20.7 3 Este 9 Sudoeste 0 964.6 0.7 44
2019-10-04 21:00:00 22.7 6 Sur 12 Oeste 0 964.6 0.5 39
2019-10-04 20:00:00 24.7 7 Oeste 19 Oeste 0 964.2 -0.2 33
2019-10-04 19:00:00 27.6 8 Sudoeste 21 Sudoeste 0 963.9 -0.8 28
2019-10-04 18:00:00 28.7 12 Oeste 22 Oeste 0 964.1 -1.2 27
2019-10-04 17:00:00 29.1 12 Oeste 26 Oeste 0 964.4 -1.7 22
2019-10-04 16:00:00 28.6 10 Oeste 25 Oeste 0 964.7 -1.9 22
2019-10-04 15:00:00 28.1 11 Oeste 24 Noroeste 0 965.3 -1.9 25
2019-10-04 14:00:00 26.7 6 Oeste 17 Noroeste 0 966.1 -1.2 32
2019-10-04 13:00:00 24.9 4 Norte 9 Oeste 0 966.6 -0.8 35
2019-10-04 12:00:00 21.7 4 Oeste 11 Oeste 0 967.2 0.2 41
2019-10-04 11:00:00 19.4 3 Noroeste 8 Norte 0 967.3 0.6 40
2019-10-04 10:00:00 15.8 3 Noroeste 7 Norte 0 967.4 0.7 49
2019-10-04 09:00:00 12.4 3 Sur 6 Sur 0 967 0.9 61
2019-10-04 08:00:00 12.1 3 Este 6 Este 0 966.7 0.2 61
2019-10-04 07:00:00 12.6 3 Sur 12 Oeste 0 966.7 0.3 61
2019-10-04 06:00:00 13.2 3 Nordeste 8 Sudeste 0 966.1 -0.5 53
2019-10-04 05:00:00 13.8 5 Oeste 8 Sudoeste 0 966.5 -0.1 51
2019-10-04 04:00:00 14.7 3 Sudoeste 5 Sur 0 966.4 -0.3 49
2019-10-04 03:00:00 15.1 2 Este 10 Oeste 0 966.6 -0.1 48
2019-10-04 02:00:00 15.5 3 Norte 8 Sudoeste 0 966.6 -0.1 46
2019-10-04 01:00:00 17.4 2 Sur 6 Sur 0 966.7 0.3 39
2019-10-04 00:00:00 17.6 2 Sudeste 7 Sudeste 0 966.7 0.4 36
2019-10-03 23:00:00 19.6 2 Nordeste 10 Sudoeste 0 966.7 0.5 32
2019-10-03 22:00:00 21.9 7 Sur 10 Sudoeste 0 966.4 0.5 29
2019-10-03 21:00:00 23.2 6 Sur 12 Sudoeste 0 966.3 0.2 26
2019-10-03 20:00:00 25.5 7 Sudoeste 15 Sudoeste 0 966.2 -0.1 21
2019-10-03 19:00:00 27.6 6 Sudoeste 21 Noroeste 0 965.9 -0.8 19
2019-10-03 18:00:00 28.7 10 Noroeste 21 Noroeste 0 966.1 -1.1 18
2019-10-03 17:00:00 28.2 11 Noroeste 21 Noroeste 0 966.3 -1.3 20
2019-10-03 16:00:00 27.7 9 Oeste 22 Norte 0 966.7 -1.4 21
2019-10-03 15:00:00 27.2 7 Noroeste 15 Noroeste 0 967.2 -1.3 21
2019-10-03 14:00:00 25.8 5 Oeste 17 Noroeste 0 967.6 -0.8 25
2019-10-03 13:00:00 24.2 6 Noroeste 13 Noroeste 0 968.1 0.1 26
2019-10-03 12:00:00 22 4 Oeste 8 Oeste 0 968.5 0.9 30
2019-10-03 11:00:00 18.9 3 Norte 7 Sudoeste 0 968.4 1 36
2019-10-03 10:00:00 14.7 2 Norte 4 Norte 0 968 1 49
2019-10-03 09:00:00 11.8 5 Oeste 8 Sudoeste 0 967.6 0.9 59
2019-10-03 08:00:00 10.6 2 Sur 4 Sur 0 967.4 0.9 62
2019-10-03 07:00:00 11.5 0 Calma 5 Sur 0 967 0.5 57
2019-10-03 06:00:00 12.6 2 Sur 3 Sur 0 966.7 0.1 54
2019-10-03 05:00:00 13.9 3 Sudoeste 6 Oeste 0 966.5 -0.2 49
2019-10-03 04:00:00 13.7 3 Sudoeste 6 Sudoeste 0 966.5 -0.4 52
2019-10-03 03:00:00 13.3 4 Oeste 7 Sudoeste 0 966.6 -0.1 48
2019-10-03 02:00:00 14.6 4 Sur 8 Sudoeste 0 966.7 0 44
2019-10-03 01:00:00 14.7 3 Sudoeste 4 Sudoeste 0 966.9 0.5 40
2019-10-03 00:00:00 17.2 4 Sudeste 8 Sudeste 0 966.7 0.8 39
2019-10-02 23:00:00 18.9 5 Sur 8 Sudeste 0 966.7 1.4 33
2019-10-02 22:00:00 20 4 Sur 6 Sudeste 0 966.4 1.6 29
2019-10-02 21:00:00 22.5 5 Oeste 12 Noroeste 0 965.9 0.9 22
2019-10-02 20:00:00 25 9 Oeste 28 Noroeste 0 965.3 0 18
2019-10-02 19:00:00 27.5 19 Noroeste 28 Oeste 0 964.8 -0.9 13
2019-10-02 18:00:00 28 10 Sudoeste 23 Oeste 0 965 -0.9 16
2019-10-02 17:00:00 28.2 11 Oeste 20 Sudoeste 0 965.3 -1.2 17
2019-10-02 16:00:00 26.5 7 Noroeste 18 Sudoeste 0 965.7 -1 23
2019-10-02 15:00:00 25.8 8 Oeste 18 Oeste 0 965.9 -0.8 25
2019-10-02 14:00:00 24 8 Noroeste 16 Noroeste 0 966.5 -0.1 29
2019-10-02 13:00:00 22.3 8 Oeste 14 Noroeste 0 966.7 0.7 34
2019-10-02 12:00:00 20.8 5 Noroeste 16 Oeste 0 966.7 1.1 42
2019-10-02 11:00:00 18.9 5 Sur 13 Sur 0 966.6 1.3 51
2019-10-02 10:00:00 16.8 0 Calma 4 Noroeste 0 966 0.8 59
2019-10-02 09:00:00 12.9 3 Norte 6 Sudoeste 0 965.6 0.6 70
2019-10-02 08:00:00 13.5 3 Este 14 Sur 0 965.3 0.3 69
2019-10-02 07:00:00 14.8 11 Sudoeste 15 Sudoeste 0 965.2 0 67
2019-10-02 06:00:00 15.3 6 Sudoeste 16 Oeste 0 965 -0.1 64
2019-10-02 05:00:00 15.7 4 Nordeste 18 Sudoeste 0 965 -0.3 61
2019-10-02 04:00:00 16.8 9 Oeste 16 Sudoeste 0 965.2 -0.2 56
2019-10-02 03:00:00 18.6 9 Sudoeste 19 Noroeste 0 965.1 -0.1 46
2019-10-02 02:00:00 20 14 Oeste 26 Oeste 0 965.3 0.3 42
2019-10-02 01:00:00 19.7 5 Oeste 17 Oeste 0 965.4 0.9 44
2019-10-02 00:00:00 20.7 8 Oeste 15 Oeste 0 965.2 1.1 40
2019-10-01 23:00:00 21 6 Sudoeste 13 Oeste 0 965 1.1 38
2019-10-01 22:00:00 21.9 9 Oeste 20 Oeste 0 964.5 1.3 36
2019-10-01 21:00:00 22.9 10 Oeste 24 Noroeste 0 964.1 1.1 33
2019-10-01 20:00:00 24.5 15 Oeste 33 Noroeste 0 963.9 0.7 33
2019-10-01 19:00:00 26.6 18 Oeste 36 Oeste 0 963.2 -0.1 30
2019-10-01 18:00:00 27.5 22 Oeste 36 Oeste 0 963 -0.7 28
2019-10-01 17:00:00 27.9 18 Oeste 33 Sudoeste 0 963.2 -1.3 25
2019-10-01 16:00:00 27 17 Oeste 33 Sudoeste 0 963.3 -1.5 32
2019-10-01 15:00:00 25 14 Oeste 26 Oeste 0 963.7 -1.5 43
2019-10-01 14:00:00 24 14 Sudoeste 25 Sudoeste 0 964.5 -0.1 47
2019-10-01 13:00:00 22.6 11 Oeste 27 Sudoeste 0 964.8 0.8 49
2019-10-01 12:00:00 20.7 16 Oeste 26 Oeste 0 965.2 1.8 58
2019-10-01 11:00:00 21.1 7 Sudoeste 15 Sudoeste 0 964.6 1.5 56
2019-10-01 10:00:00 20.3 2 Noroeste 8 Norte 0 964 1 53
2019-10-01 09:00:00 17.6 2 Nordeste 13 Oeste 0 963.4 0.5 54
2019-10-01 08:00:00 16 3 Noroeste 9 Sudeste 0 963.1 0.6 48
2019-10-01 07:00:00 16 4 Oeste 11 Oeste 0 963 -0.1 42
2019-10-01 06:00:00 17.5 5 Sudoeste 10 Sur 0 962.9 -1 38
2019-10-01 05:00:00 19.1 2 Este 10 Sudeste 0 962.5 -1 32
2019-10-01 04:00:00 18.8 5 Sudoeste 8 Sudoeste 0 963.1 -0.6 34
2019-10-01 03:00:00 16.8 6 Sudoeste 8 Norte 0 963.9 0.3 40
2019-10-01 02:00:00 18.5 4 Sudoeste 6 Sudoeste 0 963.5 0 33
2019-10-01 01:00:00 19.5 3 Sudoeste 8 Sudeste 0 963.7 0.4 31
2019-10-01 00:00:00 20.4 5 Sudeste 7 Sudeste 0 963.6 0.6 30
2019-09-30 23:00:00 21.3 0 Calma 6 Oeste 0 963.5 0.3 31
2019-09-30 22:00:00 23.3 4 Sur 8 Sudeste 0 963.3 0.1 25
2019-09-30 21:00:00 25.1 6 Sur 8 Sur 0 963 -0.4 22
2019-09-30 20:00:00 28.6 5 Noroeste 19 Oeste 0 963.2 -0.5 15
2019-09-30 19:00:00 31.7 8 Oeste 21 Oeste 0 963.2 -1.1 12
2019-09-30 18:00:00 32.3 14 Noroeste 24 Noroeste 0 963.4 -1.5 12
2019-09-30 17:00:00 32.8 12 Oeste 24 Oeste 0 963.7 -2.2 12
2019-09-30 16:00:00 32.2 13 Oeste 25 Noroeste 0 964.3 -2.1 13
2019-09-30 15:00:00 32.3 9 Sudoeste 22 Oeste 0 964.9 -1.9 13
2019-09-30 14:00:00 31.1 8 Oeste 15 Noroeste 0 965.9 -0.9 13
2019-09-30 13:00:00 28.4 4 Oeste 8 Norte 0 966.4 -0.2 19
2019-09-30 12:00:00 24.7 3 Este 7 Nordeste 0 966.8 0.5 25
2019-09-30 11:00:00 21.3 3 Norte 7 Norte 0 966.8 0.8 30
2019-09-30 10:00:00 18.5 0 Calma 4 Nordeste 0 966.6 0.8 38
2019-09-30 09:00:00 13.2 2 Sudeste 4 Sudeste 0 966.3 0.8 60
2019-09-30 08:00:00 13.2 0 Calma 6 Sudoeste 0 966 0.4 55
2019-09-30 07:00:00 13.1 4 Sudoeste 6 Sudoeste 0 965.8 -0.2 55
2019-09-30 06:00:00 14 2 Noroeste 7 Sudoeste 0 965.5 -0.8 50
2019-09-30 05:00:00 15.5 3 Sudeste 5 Sur 0 965.6 -0.5 44
2019-09-30 04:00:00 16.2 3 Oeste 6 Sudoeste 0 966 -0.2 47
2019-09-30 03:00:00 16.1 4 Sur 8 Sur 0 966.3 0.2 43
2019-09-30 02:00:00 17.6 3 Sudoeste 6 Sudoeste 0 966.1 0 38
2019-09-30 01:00:00 17.2 2 Sur 7 Sur 0 966.2 0.4 37
2019-09-30 00:00:00 18.9 0 Calma 6 Nordeste 0 966.1 0.8 35
2019-09-29 23:00:00 20.9 5 Sudoeste 6 Sudeste 0 966.1 1 29
2019-09-29 22:00:00 22.8 3 Sur 7 Sudoeste 0 965.8 0.7 27
2019-09-29 21:00:00 25 5 Sudoeste 8 Sudoeste 0 965.3 0 22
2019-09-29 20:00:00 28.6 4 Oeste 14 Oeste 0 965.1 -0.5 14
2019-09-29 19:00:00 31.2 11 Oeste 24 Sudoeste 0 965.1 -0.8 12
2019-09-29 18:00:00 32.3 12 Oeste 26 Oeste 0 965.3 -1.3 12
2019-09-29 17:00:00 32.7 11 Sudoeste 24 Oeste 0 965.6 -1.7 12
2019-09-29 16:00:00 32.8 8 Oeste 18 Oeste 0 965.9 -1.7 13
2019-09-29 15:00:00 32.4 6 Oeste 17 Oeste 0 966.6 -1.2 13
2019-09-29 14:00:00 30.8 6 Norte 17 Noroeste 0 967.3 -0.6 14
2019-09-29 13:00:00 28.6 5 Noroeste 12 Noroeste 0 967.6 0.1 19
2019-09-29 12:00:00 26.1 3 Noroeste 8 Sudoeste 0 967.8 0.7 22
2019-09-29 11:00:00 22.6 3 Norte 8 Norte 0 967.9 1.4 27
2019-09-29 10:00:00 18.5 0 Calma 8 Nordeste 0 967.5 1.2 35
2019-09-29 09:00:00 14 4 Sur 7 Sur 0 967.1 1.1 50
2019-09-29 08:00:00 13.7 3 Sudoeste 6 Sur 0 966.5 0.3 50
2019-09-29 07:00:00 13.7 0 Calma 4 Sur 0 966.3 -0.1 49
2019-09-29 06:00:00 15.2 5 Sudoeste 8 Sudoeste 0 966 -0.7 41
2019-09-29 05:00:00 14.1 3 Oeste 7 Nordeste 0 966.2 -0.3 44
2019-09-29 04:00:00 16.4 5 Sudoeste 7 Sur 0 966.4 -0.2 41
2019-09-29 03:00:00 16.4 2 Norte 5 Sudoeste 0 966.7 0.1 40
2019-09-29 02:00:00 17.2 2 Nordeste 7 Sudeste 0 966.5 0.1 34
2019-09-29 01:00:00 20.1 3 Sur 7 Sur 0 966.6 0.5 27
2019-09-29 00:00:00 19.6 4 Sudeste 9 Sudeste 0 966.6 0.7 29
2019-09-28 23:00:00 20.5 3 Este 6 Sur 0 966.4 0.7 28
2019-09-28 22:00:00 22.7 4 Sur 7 Sur 0 966.1 0.3 24
2019-09-28 21:00:00 24.6 4 Sudoeste 6 Sur 0 965.9 0 22
2019-09-28 20:00:00 28.9 5 Noroeste 14 Noroeste 0 965.7 -0.3 14
2019-09-28 19:00:00 31.6 8 Noroeste 18 Oeste 0 965.8 -0.7 12
2019-09-28 18:00:00 32.7 8 Oeste 19 Oeste 0 965.9 -1.2 12
2019-09-28 17:00:00 32.9 10 Oeste 23 Noroeste 0 966 -1.9 12
2019-09-28 16:00:00 32.3 9 Oeste 20 Noroeste 0 966.5 -2.1 13
2019-09-28 15:00:00 31.6 6 Noroeste 18 Noroeste 0 967.1 -2 13
2019-09-28 14:00:00 30.6 5 Norte 13 Norte 0 967.9 -1.2 14
2019-09-28 13:00:00 28.4 3 Noroeste 9 Noroeste 0 968.6 -0.1 18
2019-09-28 12:00:00 24.4 3 Sur 6 Sudoeste 0 969.1 0.9 26
2019-09-28 11:00:00 20.5 3 Sudoeste 9 Norte 0 969.1 1.4 34
2019-09-28 10:00:00 17.1 2 Nordeste 4 Nordeste 0 968.7 1.1 42
2019-09-28 09:00:00 12.4 0 Calma 5 Sudoeste 0 968.2 0.7 56
2019-09-28 08:00:00 12.2 5 Sur 6 Sudoeste 0 967.7 0.2 59
2019-09-28 07:00:00 11.3 2 Noroeste 6 Nordeste 0 967.6 0.2 60
2019-09-28 06:00:00 13.7 4 Sur 8 Sur 0 967.5 0 54
2019-09-28 05:00:00 14.5 4 Sur 10 Sudoeste 0 967.5 0 50
2019-09-28 04:00:00 14.6 0 Calma 7 Sur 0 967.4 -0.1 46
2019-09-28 03:00:00 16.2 5 Sudoeste 8 Sudoeste 0 967.5 0.1 42
2019-09-28 02:00:00 15.8 0 Calma 9 Sudoeste 0 967.5 0.1 51
2019-09-28 01:00:00 16.5 0 Calma 5 Sur 0 967.5 0.6 43
2019-09-28 00:00:00 19.6 0 Calma 8 Sudoeste 0 967.4 1.1 30
2019-09-27 23:00:00 20.8 2 Sudoeste 6 Sudoeste 0 967.4 1.3 30
2019-09-27 22:00:00 24 6 Sudoeste 9 Sudoeste 0 966.9 0.8 24
2019-09-27 21:00:00 25.4 5 Sudoeste 12 Sudoeste 0 966.3 0.4 23
2019-09-27 20:00:00 27.9 8 Oeste 19 Oeste 0 966.1 0 20
2019-09-27 19:00:00 30 11 Sudoeste 23 Sudoeste 0 966.1 -0.3 19
2019-09-27 18:00:00 31.4 9 Oeste 21 Noroeste 0 965.9 -1.2 17
2019-09-27 17:00:00 31.5 11 Oeste 19 Oeste 0 966.1 -1.6 18
2019-09-27 16:00:00 31.1 8 Oeste 22 Oeste 0 966.4 -1.5 19
2019-09-27 15:00:00 30.4 10 Oeste 23 Sudoeste 0 967.1 -1.1 21
2019-09-27 14:00:00 29.3 9 Sudoeste 20 Oeste 0 967.7 -0.5 22
2019-09-27 13:00:00 27.5 5 Oeste 11 Oeste 0 967.9 -0.1 27
2019-09-27 12:00:00 24.7 5 Noroeste 11 Noroeste 0 968.2 0.5 33
2019-09-27 11:00:00 22 2 Sur 7 Noroeste 0 968.2 0.7 41
2019-09-27 10:00:00 18.1 3 Sudoeste 6 Oeste 0 968 0.8 53
2019-09-27 09:00:00 14.5 0 Calma 5 Norte 0 967.7 0.5 66
2019-09-27 08:00:00 13.9 3 Sur 6 Sudoeste 0 967.5 0.4 68
2019-09-27 07:00:00 14.5 5 Sur 6 Sudoeste 0 967.2 0.1 64
2019-09-27 06:00:00 14.9 0 Calma 5 Sudeste 0 967.2 -0.1 63
2019-09-27 05:00:00 15.7 3 Noroeste 8 Sudoeste 0 967.1 -0.1 59
2019-09-27 04:00:00 16.2 0 Calma 5 Sudeste 0 967.1 -0.2 60
2019-09-27 03:00:00 16.2 0 Calma 6 Oeste 0 967.3 0 58
2019-09-27 02:00:00 17.3 2 Sur 4 Nordeste 0 967.2 -0.1 52
2019-09-27 01:00:00 18.2 2 Sur 5 Sur 0 967.3 0.5 53
2019-09-27 00:00:00 18.8 2 Sudeste 7 Sudeste 0 967.3 0.9 45
2019-09-26 23:00:00 21.1 5 Sudeste 8 Sudeste 0 967.3 1.1 35
2019-09-26 22:00:00 22.9 5 Sudeste 7 Sudeste 0 966.8 0.8 33
2019-09-26 21:00:00 24.6 0 Calma 10 Oeste 0 966.4 0.3 31
2019-09-26 20:00:00 27.3 6 Oeste 18 Oeste 0 966.2 0 26
2019-09-26 19:00:00 29.8 7 Oeste 19 Oeste 0 966 -0.4 20
2019-09-26 18:00:00 30.7 12 Sudoeste 19 Oeste 0 966.1 -0.7 19
2019-09-26 17:00:00 30.6 10 Oeste 23 Oeste 0 966.2 -1.3 21
2019-09-26 16:00:00 29.7 10 Noroeste 24 Oeste 0 966.4 -1.5 22
2019-09-26 15:00:00 29.3 10 Noroeste 21 Noroeste 0 966.8 -1.5 24
2019-09-26 14:00:00 28.4 7 Noroeste 17 Oeste 0 967.5 -0.9 26
2019-09-26 13:00:00 27.3 5 Noroeste 12 Oeste 0 967.9 -0.2 28
2019-09-26 12:00:00 24.4 3 Nordeste 9 Nordeste 0 968.3 0.8 34
2019-09-26 11:00:00 21.2 3 Sur 7 Nordeste 0 968.4 1.4 43
2019-09-26 10:00:00 18.5 3 Nordeste 5 Norte 0 968.1 1.6 55
2019-09-26 09:00:00 14.9 0 Calma 4 Sudoeste 0 967.5 1.2 69
2019-09-26 08:00:00 13.1 0 Calma 7 Sudoeste 0 967 0.7 72
2019-09-26 07:00:00 13.6 0 Calma 5 Norte 0 966.5 0.2 70
2019-09-26 06:00:00 14.3 0 Calma 5 Sur 0 966.3 -0.2 67
2019-09-26 05:00:00 15.5 3 Sur 4 Sudoeste 0 966.3 -0.2 64
2019-09-26 04:00:00 15.6 3 Oeste 6 Sudoeste 0 966.3 -0.3 63
2019-09-26 03:00:00 15.9 0 Calma 5 Sur 0 966.5 0.1 61
2019-09-26 02:00:00 16.6 0 Calma 7 Sur 0 966.5 0.4 56
2019-09-26 01:00:00 18.4 5 Sur 7 Sudeste 0 966.6 0.8 53
2019-09-26 00:00:00 19.9 2 Sur 6 Oeste 0 966.4 0.9 44
2019-09-25 23:00:00 21.2 4 Sudoeste 9 Sudoeste 0 966.1 0.8 38
2019-09-25 22:00:00 22.5 6 Sudoeste 12 Sudoeste 0 965.8 0.7 33
2019-09-25 21:00:00 23.6 7 Sudoeste 14 Sudoeste 0 965.5 0.4 31
2019-09-25 20:00:00 25.3 10 Oeste 22 Oeste 0 965.3 -0.1 30
2019-09-25 19:00:00 27.8 5 Sudoeste 15 Noroeste 0 965.1 -0.8 26
2019-09-25 18:00:00 28 7 Noroeste 18 Noroeste 0 965.1 -1.3 24
2019-09-25 17:00:00 27.3 8 Noroeste 17 Sur 0 965.4 -1.6 24
2019-09-25 16:00:00 26.4 6 Noroeste 19 Noroeste 0 965.9 -1.5 26
2019-09-25 15:00:00 25.4 8 Sudoeste 20 Oeste 0 966.4 -1.2 29
2019-09-25 14:00:00 23.8 8 Oeste 19 Sudoeste 0 967 -0.4 34
2019-09-25 13:00:00 22.7 5 Noroeste 17 Oeste 0 967.4 0.5 35
2019-09-25 12:00:00 21 5 Sur 14 Oeste 0 967.6 1.1 42
2019-09-25 11:00:00 19.9 7 Sur 13 Sudoeste 0 967.4 1.4 52
2019-09-25 10:00:00 17.7 8 Sudoeste 17 Sudoeste 0 966.9 1.1 61
2019-09-25 09:00:00 15.6 9 Sudoeste 19 Sudoeste 0 966.5 0.6 72
2019-09-25 08:00:00 14.5 9 Sudoeste 16 Sudoeste 0 966 -0.2 76
2019-09-25 07:00:00 15.4 5 Sur 16 Oeste 0 965.8 -0.4 70
2019-09-25 06:00:00 15.9 5 Oeste 20 Sudoeste 0 965.9 -0.9 69
2019-09-25 05:00:00 16.8 8 Sudoeste 18 Sudoeste 0 966.2 -0.6 68
2019-09-25 04:00:00 18.1 12 Sudoeste 20 Oeste 0 966.2 -0.9 63
2019-09-25 03:00:00 19.8 10 Oeste 19 Oeste 0 966.8 -0.2 69
2019-09-25 02:00:00 20.1 8 Oeste 19 Oeste 0 966.8 -0.2 67
2019-09-25 01:00:00 21.1 9 Oeste 17 Oeste 0 967.1 0.1 66
2019-09-25 00:00:00 21.6 7 Sudoeste 19 Oeste 0 967 0.5 66
2019-09-24 23:00:00 21.8 7 Oeste 15 Noroeste 0 967 0.8 65
2019-09-24 22:00:00 23.1 11 Noroeste 21 Noroeste 0 967 1 61
2019-09-24 21:00:00 24.7 12 Oeste 22 Oeste 0 966.5 0.4 52
2019-09-24 20:00:00 25.9 13 Oeste 26 Oeste 0 966.2 -0.3 43
2019-09-24 19:00:00 27.9 14 Sudoeste 23 Oeste 0 966 -1 30
2019-09-24 18:00:00 28.7 14 Oeste 28 Sudoeste 0 966.1 -1.6 29
2019-09-24 17:00:00 28.7 13 Sudoeste 26 Sudoeste 0 966.5 -2 28
2019-09-24 16:00:00 28.7 11 Oeste 27 Oeste 0 967 -2.2 24
2019-09-24 15:00:00 27.5 13 Oeste 25 Oeste 0 967.7 -1.8 28
2019-09-24 14:00:00 26.3 13 Oeste 23 Oeste 0 968.5 -1.2 29
2019-09-24 13:00:00 24.5 13 Oeste 21 Sudoeste 0 969.2 0.2 35
2019-09-24 12:00:00 22.8 9 Oeste 16 Oeste 0 969.5 0.7 44
2019-09-24 11:00:00 21.5 3 Sudoeste 12 Sudoeste 0 969.7 0.9 46
2019-09-24 10:00:00 18 7 Sudoeste 12 Sudoeste 0 969 0.8 55
2019-09-24 09:00:00 14.1 4 Sudeste 8 Sudeste 0 968.8 0.9 72
2019-09-24 08:00:00 11.4 4 Sudeste 7 Sudeste 0 968.8 0.6 79
2019-09-24 07:00:00 11.9 3 Sur 5 Sudoeste 0 968.2 -0.2 78
2019-09-24 06:00:00 12.7 4 Sudeste 5 Sudeste 0 967.9 -0.7 74
2019-09-24 05:00:00 13.3 0 Calma 4 Sudeste 0 968.2 -0.5 73
2019-09-24 04:00:00 14.2 2 Sudoeste 6 Sudoeste 0 968.4 -0.4 69
2019-09-24 03:00:00 14.9 4 Oeste 7 Oeste 0 968.6 -0.4 63
2019-09-24 02:00:00 15.2 0 Calma 4 Sudeste 0 968.7 -0.3 65
2019-09-24 01:00:00 15.8 4 Sudeste 6 Sudeste 0 968.8 0 63
2019-09-24 00:00:00 17.2 3 Sur 6 Sudeste 0 969 0.5 51
2019-09-23 23:00:00 18.5 5 Sudeste 6 Sur 0 969 0.9 48
2019-09-23 22:00:00 20.1 4 Sur 8 Oeste 0 968.8 0.7 44
2019-09-23 21:00:00 21.9 3 Sudoeste 8 Sudoeste 0 968.5 0.4 38
2019-09-23 20:00:00 24.5 7 Oeste 15 Oeste 0 968.1 -0.1 28
2019-09-23 19:00:00 26 10 Oeste 14 Sudoeste 0 968.1 -0.3 25
2019-09-23 18:00:00 27 6 Oeste 17 Oeste 0 968.1 -0.7 23
2019-09-23 17:00:00 26.5 11 Oeste 20 Oeste 0 968.2 -1.1 25
2019-09-23 16:00:00 26.2 6 Sudoeste 15 Oeste 0 968.4 -1.1 29
2019-09-23 15:00:00 24.6 6 Oeste 16 Oeste 0 968.8 -0.8 34
2019-09-23 14:00:00 23.5 8 Noroeste 16 Noroeste 0 969.3 -0.7 37
2019-09-23 13:00:00 23 6 Norte 16 Noroeste 0 969.5 0 40
2019-09-23 12:00:00 21.3 4 Norte 7 Norte 0 969.6 0.2 51
2019-09-23 11:00:00 17.6 4 Norte 7 Norte 0 970 1.4 68
2019-09-23 10:00:00 15 2 Norte 8 Norte 0 969.5 1.4 79
2019-09-23 09:00:00 12.1 3 Oeste 5 Oeste 0 969.4 1.7 86
2019-09-23 08:00:00 11.3 3 Norte 6 Sudoeste 0 968.6 1.2 84
2019-09-23 07:00:00 12.1 6 Sudoeste 8 Sudoeste 0 968.1 0.6 87
2019-09-23 06:00:00 11.5 0 Calma 8 Sudeste 0 967.7 0.5 83
2019-09-23 05:00:00 12.8 0 Calma 10 Sudeste 0 967.4 0 81
2019-09-23 04:00:00 13.4 4 Sudoeste 7 Sudoeste 0 967.5 0.1 78
2019-09-23 03:00:00 13.9 0 Calma 5 Sur 0 967.2 -0.1 72
2019-09-23 02:00:00 15.2 0 Calma 6 Sur 0 967.4 0.3 69
2019-09-23 01:00:00 16 3 Sur 8 Sudoeste 0 967.4 0.9 68
2019-09-23 00:00:00 16.9 5 Sur 8 Sudoeste 0 967.3 1.6 61
2019-09-22 23:00:00 17.8 4 Sudoeste 8 Sudoeste 0 967.1 1.7 59
2019-09-22 22:00:00 18.6 4 Sudoeste 13 Oeste 0 966.5 1.6 56
2019-09-22 21:00:00 19.8 8 Oeste 19 Oeste 0 965.7 0.9 51
2019-09-22 20:00:00 21 13 Oeste 23 Oeste 0 965.4 0.6 45
2019-09-22 19:00:00 22.2 13 Oeste 26 Oeste 0 964.9 0.3 39
2019-09-22 18:00:00 23.4 16 Oeste 31 Oeste 0 964.8 0.1 35
2019-09-22 17:00:00 23 19 Oeste 34 Noroeste 0 964.8 0 35
2019-09-22 16:00:00 23.4 18 Noroeste 34 Noroeste 0 964.6 -0.1 39
2019-09-22 15:00:00 22.7 19 Oeste 31 Oeste 0 964.7 0.2 44
2019-09-22 14:00:00 21.2 10 Oeste 24 Sudoeste 0 964.8 0.3 56
2019-09-22 13:00:00 20.2 13 Oeste 24 Oeste 0 964.7 0.7 59
2019-09-22 12:00:00 19.6 9 Oeste 23 Sudoeste 0 964.5 1.2 61
2019-09-22 11:00:00 17.6 11 Oeste 33 Sudoeste 0 964.5 2.2 70
2019-09-22 10:00:00 16.4 10 Oeste 19 Sudoeste 0.2 964 2.4 74
2019-09-22 09:00:00 16.5 10 Sudoeste 23 Oeste 0 963.3 2 78
2019-09-22 08:00:00 17.3 17 Oeste 28 Sudoeste 1 962.3 0.7 86
2019-09-22 07:00:00 17.8 9 Sudoeste 19 Sur 0.8 961.6 -0.2 87
2019-09-22 06:00:00 18.1 11 Sur 22 Sur 0.2 961.3 -0.4 83
2019-09-22 05:00:00 17.9 10 Sudoeste 34 Sudoeste 1.6 961.6 -0.2 86
2019-09-22 04:00:00 18.4 17 Sudoeste 32 Sur 1.2 961.8 -0.3 85
2019-09-22 03:00:00 20.2 16 Sur 31 Sur 0 961.7 -0.1 70
2019-09-22 02:00:00 20.3 13 Sur 26 Sur 0 961.8 -0.1 69
2019-09-22 01:00:00 20.4 14 Sur 35 Sur 0 962.1 0.6 68
2019-09-22 00:00:00 20.4 12 Sur 26 Sur 0.2 961.8 0.6 69
2019-09-21 23:00:00 21.7 13 Sur 27 Sur 0 961.9 0.9 58
2019-09-21 22:00:00 21.9 10 Sur 24 Sur 0 961.5 0.2 57
2019-09-21 21:00:00 22.1 12 Sudoeste 23 Sudoeste 0 961.2 -0.1 54
2019-09-21 20:00:00 22.4 10 Sur 21 Sudoeste 0 961 -0.3 54
2019-09-21 19:00:00 22.8 12 Sudoeste 31 Sudoeste 0 961.3 -0.2 53
2019-09-21 18:00:00 23.8 11 Sudoeste 34 Sudoeste 0 961.3 -0.4 39
2019-09-21 17:00:00 24.5 15 Sudoeste 33 Sudoeste 0 961.3 -0.9 31
2019-09-21 16:00:00 24.7 15 Sudoeste 32 Sur 0 961.5 -1.1 36
2019-09-21 15:00:00 24.1 15 Sudoeste 35 Sudoeste 0 961.7 -1 42
2019-09-21 14:00:00 22.9 17 Sudoeste 30 Sudoeste 0 962.2 -0.3 50
2019-09-21 13:00:00 22.2 15 Sudoeste 30 Sudoeste 0 962.6 0.4 55
2019-09-21 12:00:00 21.9 17 Sudoeste 32 Sur 0 962.7 0.8 59
2019-09-21 11:00:00 21.5 9 Sur 23 Sur 0 962.5 0.7 61
2019-09-21 10:00:00 21 6 Sudeste 19 Sudeste 0 962.2 0.3 63
2019-09-21 09:00:00 19.4 8 Sudeste 14 Sudeste 0 961.9 -0.2 69
2019-09-21 08:00:00 18.2 2 Nordeste 9 Sur 0 961.8 -0.2 70
2019-09-21 07:00:00 17.7 3 Este 10 Sudoeste 0 961.9 -0.5 72
2019-09-21 06:00:00 18.9 6 Sur 13 Sur 0 962.1 -0.7 68
2019-09-21 05:00:00 17.2 3 Sur 6 Sur 0 962 -0.7 73
2019-09-21 04:00:00 18.1 4 Sur 8 Sur 0 962.4 -0.6 69
2019-09-21 03:00:00 17.5 5 Nordeste 8 Sur 0 962.8 -0.1 67
2019-09-21 02:00:00 18.2 3 Sudoeste 9 Sudoeste 0 962.7 -0.2 67
2019-09-21 01:00:00 19.1 5 Sudoeste 10 Sudoeste 0 963 0.6 64
2019-09-21 00:00:00 19.7 5 Sudoeste 9 Sudoeste 0 962.9 1.2 62
2019-09-20 23:00:00 20.4 6 Oeste 9 Oeste 0 962.9 1.6 61
2019-09-20 22:00:00 21.2 4 Nordeste 24 Oeste 0 962.4 1.2 55
2019-09-20 21:00:00 21.9 14 Oeste 27 Oeste 0 961.7 0.4 53
2019-09-20 20:00:00 24.9 16 Sudoeste 36 Sudoeste 0 961.3 -0.2 39
2019-09-20 19:00:00 26.4 18 Sudoeste 34 Sudoeste 0 961.2 -0.8 34
2019-09-20 18:00:00 28.1 8 Sudeste 22 Sur 0 961.3 -1.3 31
2019-09-20 17:00:00 27.7 12 Sur 27 Sur 0 961.5 -1.4 31
2019-09-20 16:00:00 27.2 10 Sudeste 26 Sur 0 962 -1.6 31
2019-09-20 15:00:00 26.5 14 Sudeste 30 Sudeste 0 962.6 -1.5 32
2019-09-20 14:00:00 27.4 11 Sudoeste 21 Sudoeste 0 962.9 -1.4 30
2019-09-20 13:00:00 27 7 Sur 16 Sudoeste 0 963.6 -0.6 33
2019-09-20 12:00:00 24.4 5 Este 9 Este 0 964.1 0.4 34
2019-09-20 11:00:00 21.4 0 Calma 4 Nordeste 0 964.3 0.8 42
2019-09-20 10:00:00 18.7 0 Calma 4 Norte 0 964.2 1 50
2019-09-20 09:00:00 17.4 0 Calma 6 Sudeste 0 963.7 0.4 55
2019-09-20 08:00:00 17.4 3 Oeste 8 Oeste 0 963.5 0.4 57
2019-09-20 07:00:00 18.3 2 Norte 5 Sur 0 963.2 0.1 44
2019-09-20 06:00:00 18.9 2 Nordeste 4 Norte 0 963.3 -0.2 42
2019-09-20 05:00:00 20.4 2 Sudeste 6 Sudeste 0 963.1 -0.4 38
2019-09-20 04:00:00 20.8 2 Este 7 Este 0 963.1 -0.4 36
2019-09-20 03:00:00 22.8 4 Nordeste 19 Sur 0 963.5 0 31
2019-09-20 02:00:00 24.2 8 Sur 19 Sur 0 963.5 0 26
2019-09-20 01:00:00 25 10 Sur 22 Sur 0 963.5 0.5 25
2019-09-20 00:00:00 25.2 12 Sur 23 Sur 0 963.5 0.9 24
2019-09-19 23:00:00 26.2 13 Sur 21 Sur 0 963.5 1.2 25
2019-09-19 22:00:00 24.8 3 Sudeste 8 Sur 0 963 0.6 29
2019-09-19 21:00:00 26 3 Sur 7 Sudoeste 0 962.6 0.2 26
2019-09-19 20:00:00 28.7 5 Sudoeste 14 Sudoeste 0 962.3 -0.7 21
2019-09-19 19:00:00 31 8 Sudoeste 18 Oeste 0 962.4 -1 18
2019-09-19 18:00:00 31.6 5 Norte 18 Sur 0 962.4 -1.7 15
2019-09-19 17:00:00 31.2 10 Sudeste 21 Oeste 0 963 -1.8 17
2019-09-19 16:00:00 31.3 9 Oeste 19 Oeste 0 963.4 -1.7 20
2019-09-19 15:00:00 30.5 9 Oeste 20 Oeste 0 964.1 -1.4 21
2019-09-19 14:00:00 29.8 6 Sudoeste 19 Oeste 0 964.8 -0.9 25
2019-09-19 13:00:00 28.6 6 Sur 13 Sur 0 965.1 -0.4 28
2019-09-19 12:00:00 25.7 5 Noroeste 10 Nordeste 0 965.5 0.4 38
2019-09-19 11:00:00 23.4 4 Nordeste 9 Nordeste 0 965.7 1 45
2019-09-19 10:00:00 20.9 5 Nordeste 8 Nordeste 0 965.5 1.2 54
2019-09-19 09:00:00 18.1 2 Sur 6 Oeste 0 965.1 1 60
2019-09-19 08:00:00 16.6 3 Sudoeste 10 Sur 0 964.7 0.5 64
2019-09-19 07:00:00 18.9 6 Sur 12 Sudoeste 0 964.3 -0.2 55
2019-09-19 06:00:00 18.5 4 Sudoeste 7 Sudoeste 0 964.1 -0.6 56
2019-09-19 05:00:00 19.4 3 Sur 5 Sudeste 0 964.2 -0.4 52
2019-09-19 04:00:00 19.6 4 Sur 6 Sur 0 964.5 0 52
2019-09-19 03:00:00 20.4 4 Sur 8 Sudoeste 0 964.7 0.2 53
2019-09-19 02:00:00 20.8 4 Sudeste 9 Sudeste 0 964.6 0.2 53
2019-09-19 01:00:00 22 3 Sur 5 Sur 0 964.5 0.4 50
2019-09-19 00:00:00 22.1 2 Sudoeste 5 Sur 0 964.5 0.9 49
2019-09-18 23:00:00 23.1 3 Sudoeste 6 Sudoeste 0 964.4 1.2 45
2019-09-18 22:00:00 24.6 2 Oeste 8 Sudoeste 0 964.1 1.2 39
2019-09-18 21:00:00 26.3 0 Calma 10 Nordeste 0 963.6 0.6 30
2019-09-18 20:00:00 28.8 8 Oeste 16 Oeste 0 963.2 0 24
2019-09-18 19:00:00 30.6 9 Oeste 25 Oeste 0 962.9 -0.8 22
2019-09-18 18:00:00 31.3 10 Noroeste 20 Oeste 0 963 -1.3 23
2019-09-18 17:00:00 29.6 8 Norte 18 Noroeste 0 963.2 -1.5 27
2019-09-18 16:00:00 29.5 5 Norte 17 Oeste 0 963.7 -1.4 27
2019-09-18 15:00:00 30.6 8 Oeste 19 Oeste 0 964.3 -1.2 27
2019-09-18 14:00:00 29.2 6 Oeste 15 Noroeste 0 964.7 -0.9 30
2019-09-18 13:00:00 27.9 7 Oeste 12 Nordeste 0 965.1 -0.2 34
2019-09-18 12:00:00 26.2 4 Nordeste 10 Norte 0 965.5 0.7 37
2019-09-18 11:00:00 23.3 3 Noroeste 5 Sudoeste 0 965.6 1.3 42
2019-09-18 10:00:00 20.2 2 Este 7 Norte 0 965.3 1.3 53
2019-09-18 09:00:00 17.3 3 Noroeste 6 Oeste 0 964.8 1.1 62
2019-09-18 08:00:00 16.2 5 Sudoeste 7 Oeste 0 964.3 0.7 66
2019-09-18 07:00:00 16.5 3 Sur 7 Oeste 0 964 0.2 64
2019-09-18 06:00:00 16.7 2 Sur 14 Norte 0 963.7 -0.4 60
2019-09-18 05:00:00 17.8 3 Sudoeste 9 Sur 0 963.6 -0.5 55
2019-09-18 04:00:00 18.4 4 Oeste 13 Este 0 963.8 -0.2 52
2019-09-18 03:00:00 19.5 10 Norte 14 Norte 0 964.1 -1.4 48
2019-09-18 02:00:00 20.8 3 Nordeste 20 Este 0 964.1 -1.2 47
2019-09-18 01:00:00 21.1 12 Este 20 Este 0 964 0.5 46
2019-09-18 00:00:00 21.3 4 Nordeste 23 Nordeste 0 965.5 2.7 46
2019-09-17 23:00:00 21.4 12 Noroeste 22 Norte 0 965.3 2.7 49
2019-09-17 22:00:00 22.1 9 Noroeste 14 Este 0 963.5 0.9 45
2019-09-17 21:00:00 23.5 8 Este 22 Este 0 962.8 0 47